Time;durP1;ratioP1;P1;durP2;ratioP2;P2;SDS_P1;SDS_P2;PMS_P1;PMS_P2;Temp;Humidity;BMP_temperature;BMP_pressure;BME280_temperature;BME280_humidity;BME280_pressure;Samples;Min_cycle;Max_cycle;Signal;HPM_P1;HPM_P2
2021/12/31 00:00:07;;;;;;;29.95;15.30;;;9.20;99.90;;;;;;4998498;28;20015;-80
2021/12/31 00:02:33;;;;;;;21.13;10.45;;;9.50;99.90;;;;;;4998001;28;20108;-81
2021/12/31 00:04:58;;;;;;;12.02;6.90;;;9.80;99.90;;;;;;4998863;28;20116;-81
2021/12/31 00:07:24;;;;;;;10.30;6.00;;;10.20;99.90;;;;;;4998928;28;20031;-81
2021/12/31 00:09:50;;;;;;;8.50;4.93;;;10.60;99.90;;;;;;4998698;28;20023;-83
2021/12/31 00:12:15;;;;;;;10.10;4.97;;;11.00;99.90;;;;;;4998551;28;20023;-82
2021/12/31 00:14:41;;;;;;;9.55;4.53;;;11.30;99.90;;;;;;4998467;28;20023;-82
2021/12/31 00:17:07;;;;;;;6.07;4.22;;;11.70;99.90;;;;;;4998158;28;20015;-82
2021/12/31 00:19:40;;;;;;;5.50;3.72;;;11.80;99.90;;;;;;4998079;28;20043;-84
2021/12/31 00:22:38;;;;;;;4.78;3.60;;;11.90;99.90;;;;;;4996954;28;20058;-83
2021/12/31 00:24:55;;;;;;;5.13;3.60;;;12.10;99.90;;;;;;4996345;28;20030;-82
2021/12/31 00:27:21;;;;;;;4.82;3.10;;;12.20;99.90;;;;;;4997096;28;20018;-82
2021/12/31 00:29:46;;;;;;;6.95;2.63;;;12.30;99.90;;;;;;4995985;28;20068;-84
2021/12/31 00:32:12;;;;;;;3.88;2.72;;;12.40;99.90;;;;;;4995504;28;20041;-85
2021/12/31 00:34:38;;;;;;;9.05;3.30;;;12.40;99.90;;;;;;4997605;28;20047;-80
2021/12/31 00:37:04;;;;;;;4.22;3.00;;;12.40;99.90;;;;;;4997370;28;20030;-83
2021/12/31 00:39:31;;;;;;;3.33;2.85;;;12.40;99.90;;;;;;4997597;28;20058;-81
2021/12/31 00:41:57;;;;;;;5.18;2.90;;;12.40;99.90;;;;;;4997397;28;20022;-83
2021/12/31 00:44:24;;;;;;;5.70;2.90;;;12.40;99.90;;;;;;4997740;28;20011;-83
2021/12/31 00:46:50;;;;;;;4.45;2.90;;;12.40;99.90;;;;;;5000078;28;20031;-81
2021/12/31 00:49:16;;;;;;;3.53;2.47;;;12.40;99.90;;;;;;4998736;28;20058;-85
2021/12/31 00:51:42;;;;;;;3.45;2.58;;;12.40;99.90;;;;;;4999640;28;20045;-83
2021/12/31 00:54:07;;;;;;;5.97;3.10;;;12.40;99.90;;;;;;4998341;28;20046;-82
2021/12/31 00:56:33;;;;;;;4.65;2.95;;;12.40;99.90;;;;;;4999655;28;20019;-82
2021/12/31 00:59:00;;;;;;;5.35;3.28;;;12.40;99.90;;;;;;5001208;28;20038;-82
2021/12/31 01:01:26;;;;;;;2.45;2.25;;;12.40;99.90;;;;;;5016872;28;20023;-82
2021/12/31 01:03:52;;;;;;;3.45;2.40;;;12.50;99.90;;;;;;5001192;28;20090;-82
2021/12/31 01:06:18;;;;;;;2.45;2.15;;;12.40;99.90;;;;;;4999970;28;20023;-84
2021/12/31 01:08:44;;;;;;;3.60;2.47;;;12.40;99.90;;;;;;5000694;28;20030;-82
2021/12/31 01:11:11;;;;;;;3.42;2.13;;;12.30;99.90;;;;;;5000156;28;20019;-82
2021/12/31 01:13:52;;;;;;;2.72;1.95;;;12.30;99.90;;;;;;5000467;28;20035;-83
2021/12/31 01:16:19;;;;;;;2.13;1.80;;;12.20;99.90;;;;;;5000876;28;20039;-81
2021/12/31 01:21:15;;;;;;;2.55;1.75;;;12.30;99.90;;;;;;5000669;28;20020;-81
2021/12/31 01:23:41;;;;;;;2.80;1.50;;;12.20;99.90;;;;;;5000399;28;20038;-82
2021/12/31 01:26:07;;;;;;;2.42;1.70;;;12.20;99.90;;;;;;4999681;28;20043;-82
2021/12/31 01:28:33;;;;;;;3.28;1.23;;;12.30;99.90;;;;;;4992244;28;20034;-84
2021/12/31 01:30:58;;;;;;;2.03;1.45;;;12.20;99.90;;;;;;4992361;28;20058;-84
2021/12/31 01:33:24;;;;;;;2.70;1.67;;;12.30;99.90;;;;;;4990877;28;20073;-84
2021/12/31 01:35:50;;;;;;;3.40;1.40;;;12.20;99.90;;;;;;4990457;28;20055;-85
2021/12/31 01:38:16;;;;;;;2.97;1.80;;;12.20;99.90;;;;;;4991531;28;20027;-85
2021/12/31 01:40:42;;;;;;;1.63;1.20;;;12.20;99.90;;;;;;5005100;28;20487;-84
2021/12/31 01:43:11;;;;;;;3.53;1.52;;;12.20;99.90;;;;;;4991618;28;20027;-83
2021/12/31 01:45:43;;;;;;;3.20;1.30;;;12.10;99.90;;;;;;4992860;28;20042;-83
2021/12/31 01:48:22;;;;;;;2.80;1.50;;;12.20;99.90;;;;;;4997187;28;20046;-84
2021/12/31 01:50:49;;;;;;;2.25;1.40;;;12.20;99.90;;;;;;4997527;28;20066;-81
2021/12/31 01:53:16;;;;;;;2.90;1.52;;;12.20;99.90;;;;;;4999776;28;20033;-81
2021/12/31 01:55:43;;;;;;;2.05;1.33;;;12.20;99.90;;;;;;4997715;28;20039;-82
2021/12/31 01:58:09;;;;;;;2.55;1.35;;;12.20;99.90;;;;;;5012113;28;20026;-83
2021/12/31 02:00:39;;;;;;;2.00;1.30;;;12.20;99.90;;;;;;4999437;28;20054;-82
2021/12/31 02:03:06;;;;;;;2.75;1.40;;;12.20;99.90;;;;;;5008407;28;20035;-83
2021/12/31 02:05:32;;;;;;;1.55;1.25;;;12.30;99.90;;;;;;4989192;28;20035;-82
2021/12/31 02:08:11;;;;;;;1.65;1.33;;;12.30;99.90;;;;;;5123191;27;1273332;-83
2021/12/31 02:10:37;;;;;;;1.48;1.20;;;12.30;99.90;;;;;;5138653;28;20414;-85
2021/12/31 02:13:04;;;;;;;1.52;1.15;;;12.30;99.90;;;;;;5137206;28;20034;-86
2021/12/31 02:15:30;;;;;;;3.72;1.70;;;12.40;99.90;;;;;;5124569;28;20094;-86
2021/12/31 02:17:57;;;;;;;2.75;1.40;;;12.40;99.90;;;;;;5119486;28;20012;-83
2021/12/31 02:20:34;;;;;;;2.53;1.75;;;12.40;99.90;;;;;;5120388;28;20057;-83
2021/12/31 02:23:06;;;;;;;1.17;1.02;;;12.40;99.90;;;;;;5121675;28;20091;-85
2021/12/31 02:25:35;;;;;;;1.98;1.40;;;12.40;99.90;;;;;;5123267;28;20059;-84
2021/12/31 02:28:01;;;;;;;2.58;1.60;;;12.40;99.90;;;;;;5130884;28;20031;-84
2021/12/31 02:30:29;;;;;;;2.35;1.20;;;12.40;99.90;;;;;;5132085;28;20011;-85
2021/12/31 02:32:55;;;;;;;2.72;1.20;;;12.40;99.90;;;;;;5129634;28;20040;-86
2021/12/31 02:35:21;;;;;;;2.15;1.00;;;12.50;99.90;;;;;;5127658;28;20035;-82
2021/12/31 02:37:47;;;;;;;1.65;1.30;;;12.60;99.90;;;;;;5133516;28;20014;-82
2021/12/31 02:40:15;;;;;;;1.40;1.10;;;12.60;99.90;;;;;;5128856;28;20032;-84
2021/12/31 02:42:41;;;;;;;1.50;1.38;;;12.70;99.90;;;;;;5124905;28;20433;-83
2021/12/31 02:45:09;;;;;;;1.77;0.82;;;12.70;99.90;;;;;;5122767;22;20034;-87
2021/12/31 02:47:45;;;;;;;1.02;0.93;;;12.70;99.90;;;;;;5035617;28;20042;-87
2021/12/31 02:50:20;;;;;;;1.25;1.10;;;12.80;99.90;;;;;;5035123;28;20018;-88
2021/12/31 02:52:55;;;;;;;3.72;0.88;;;12.80;99.90;;;;;;5019005;28;20015;-86
2021/12/31 02:55:31;;;;;;;2.17;1.00;;;12.90;99.90;;;;;;5018300;28;20034;-87
2021/12/31 02:58:01;;;;;;;1.42;1.25;;;12.90;99.90;;;;;;5034748;28;20106;-88
2021/12/31 03:00:31;;;;;;;3.60;0.90;;;13.00;99.90;;;;;;5035381;28;20025;-87
2021/12/31 03:03:07;;;;;;;1.02;0.80;;;12.90;99.90;;;;;;5050925;28;20053;-86
2021/12/31 03:05:35;;;;;;;1.08;0.80;;;13.00;99.90;;;;;;5051262;28;20018;-86
2021/12/31 03:08:10;;;;;;;1.00;0.90;;;13.00;99.90;;;;;;5018293;28;20046;-87
2021/12/31 03:10:41;;;;;;;2.88;0.75;;;13.00;99.90;;;;;;5051115;28;20045;-88
2021/12/31 03:13:09;;;;;;;1.25;0.77;;;13.00;99.90;;;;;;5034843;28;20034;-87
2021/12/31 03:15:36;;;;;;;3.83;1.00;;;13.10;99.90;;;;;;5018177;28;20049;-87
2021/12/31 03:18:10;;;;;;;1.15;0.60;;;13.10;99.90;;;;;;5029118;28;20022;-83
2021/12/31 03:20:43;;;;;;;0.85;0.70;;;13.10;99.90;;;;;;5020660;28;20026;-84
2021/12/31 03:23:13;;;;;;;1.65;0.73;;;13.10;99.90;;;;;;5020376;28;20045;-84
2021/12/31 03:25:39;;;;;;;2.63;0.88;;;13.10;99.90;;;;;;5004166;28;20010;-84
2021/12/31 03:28:06;;;;;;;0.70;0.70;;;13.00;99.90;;;;;;5020548;28;20057;-84
2021/12/31 03:30:33;;;;;;;2.58;0.90;;;13.10;99.90;;;;;;5020524;28;20027;-84
2021/12/31 03:33:07;;;;;;;1.88;0.90;;;13.10;99.90;;;;;;5004847;28;20029;-84
2021/12/31 03:35:36;;;;;;;0.60;0.60;;;13.10;99.90;;;;;;5020920;28;20018;-83
2021/12/31 03:38:03;;;;;;;1.83;1.10;;;13.10;99.90;;;;;;5020399;28;20011;-84
2021/12/31 03:40:31;;;;;;;2.55;1.17;;;13.10;99.90;;;;;;5004666;28;20045;-82
2021/12/31 03:43:08;;;;;;;1.17;0.80;;;13.10;99.90;;;;;;5020330;28;20019;-84
2021/12/31 03:45:38;;;;;;;2.05;0.80;;;13.10;99.90;;;;;;5020534;28;20041;-86
2021/12/31 03:48:07;;;;;;;3.17;0.90;;;13.10;99.90;;;;;;5003970;28;20065;-87
2021/12/31 03:50:40;;;;;;;1.52;1.10;;;13.10;99.90;;;;;;5004000;28;20049;-86
2021/12/31 03:53:09;;;;;;;0.85;0.75;;;13.00;99.90;;;;;;5004529;28;20038;-86
2021/12/31 03:55:38;;;;;;;0.70;0.70;;;13.00;99.90;;;;;;5020481;28;20011;-86
2021/12/31 03:58:05;;;;;;;0.95;0.70;;;13.00;99.90;;;;;;5004200;28;20081;-87
2021/12/31 04:00:46;;;;;;;1.05;0.82;;;13.00;99.90;;;;;;5020602;28;20142;-87
2021/12/31 04:03:16;;;;;;;1.05;0.80;;;13.00;99.90;;;;;;5020908;28;20034;-86
2021/12/31 04:05:45;;;;;;;0.90;0.70;;;13.00;99.90;;;;;;5003594;28;20030;-86
2021/12/31 04:08:26;;;;;;;0.80;0.80;;;13.10;99.90;;;;;;5003490;28;20085;-87
2021/12/31 04:10:56;;;;;;;0.70;0.70;;;13.00;99.90;;;;;;5015036;28;20114;-86
2021/12/31 04:13:27;;;;;;;0.90;0.85;;;13.00;99.90;;;;;;4998380;28;20053;-86
2021/12/31 04:16:11;;;;;;;3.60;0.90;;;13.00;99.90;;;;;;4996464;28;20513;-87
2021/12/31 04:18:43;;;;;;;1.10;1.00;;;13.00;99.90;;;;;;5031643;28;20042;-87
2021/12/31 04:21:17;;;;;;;2.83;1.10;;;13.00;99.90;;;;;;5018981;28;20029;-85
2021/12/31 04:24:26;;;;;;;1.10;0.85;;;13.00;99.90;;;;;;5016603;28;20089;-86
2021/12/31 04:26:56;;;;;;;1.15;0.90;;;13.00;99.90;;;;;;4996945;28;20101;-86
2021/12/31 04:29:30;;;;;;;3.38;1.15;;;13.00;99.90;;;;;;5002321;28;20031;-85
2021/12/31 04:32:07;;;;;;;1.20;0.88;;;13.10;99.90;;;;;;5002699;28;20023;-87
2021/12/31 04:34:41;;;;;;;1.10;0.93;;;13.10;99.90;;;;;;5011350;28;20065;-87
2021/12/31 04:37:14;;;;;;;0.90;0.90;;;13.10;99.90;;;;;;4995050;28;20093;-86
2021/12/31 04:39:45;;;;;;;1.00;0.77;;;13.10;99.90;;;;;;5031219;28;20018;-87
2021/12/31 04:42:26;;;;;;;;;;;13.10;99.90;;;;;;5019655;28;20028;-87
2021/12/31 04:44:57;;;;;;;5.18;1.30;;;13.20;99.90;;;;;;5002132;28;19902;-87
2021/12/31 04:47:26;;;;;;;1.10;1.00;;;13.10;99.90;;;;;;5019223;28;20101;-88
2021/12/31 04:50:03;;;;;;;1.40;1.30;;;13.10;99.90;;;;;;5019049;28;20029;-86
2021/12/31 04:52:42;;;;;;;1.80;1.40;;;13.10;99.90;;;;;;5019232;28;20018;-88
2021/12/31 04:55:20;;;;;;;5.75;1.70;;;13.10;99.90;;;;;;5003197;28;20034;-86
2021/12/31 04:58:05;;;;;;;3.17;1.55;;;13.20;99.90;;;;;;5019400;28;20035;-88
2021/12/31 05:00:46;;;;;;;2.50;1.60;;;13.20;99.90;;;;;;5003226;28;20066;-88
2021/12/31 05:03:36;;;;;;;2.70;1.50;;;13.20;99.90;;;;;;5018602;28;20042;-87
2021/12/31 05:06:05;;;;;;;1.65;1.40;;;13.10;99.90;;;;;;5002317;28;20532;-87
2021/12/31 05:08:42;;;;;;;1.50;1.20;;;13.20;99.90;;;;;;5019101;28;20105;-88
2021/12/31 05:11:32;;;;;;;1.90;1.20;;;13.20;99.90;;;;;;5019189;28;20098;-86
2021/12/31 05:14:04;;;;;;;2.78;1.40;;;13.20;99.90;;;;;;5019251;28;20118;-87
2021/12/31 05:16:31;;;;;;;2.28;1.63;;;13.20;99.90;;;;;;5018737;28;20015;-88
2021/12/31 05:19:00;;;;;;;2.80;1.60;;;13.20;99.90;;;;;;5002666;28;20046;-88
2021/12/31 05:21:38;;;;;;;3.53;1.60;;;13.20;99.90;;;;;;5011072;28;20025;-87
2021/12/31 05:24:07;;;;;;;3.10;1.55;;;13.20;99.90;;;;;;5017938;28;20057;-88
2021/12/31 05:26:33;;;;;;;2.55;1.60;;;13.20;99.90;;;;;;5017984;28;20022;-87
2021/12/31 05:29:02;;;;;;;1.58;1.40;;;13.20;99.90;;;;;;5018762;28;20038;-87
2021/12/31 05:31:29;;;;;;;2.88;1.67;;;13.20;99.90;;;;;;5018490;28;20017;-84
2021/12/31 05:34:01;;;;;;;1.98;1.48;;;13.20;99.90;;;;;;5034935;28;20011;-84
2021/12/31 05:36:39;;;;;;;2.42;1.75;;;13.20;99.90;;;;;;5003534;28;20026;-83
2021/12/31 05:39:13;;;;;;;2.28;1.58;;;13.20;99.90;;;;;;5034640;28;20118;-86
2021/12/31 05:41:47;;;;;;;2.28;2.00;;;13.20;99.90;;;;;;5001494;28;20030;-84
2021/12/31 05:44:34;;;;;;;5.18;1.73;;;13.20;99.90;;;;;;5002738;28;20019;-86
2021/12/31 05:47:10;;;;;;;4.07;2.10;;;13.20;99.90;;;;;;5018299;28;20089;-83
2021/12/31 05:49:57;;;;;;;2.55;1.90;;;13.20;99.90;;;;;;5004954;28;20019;-83
2021/12/31 05:52:30;;;;;;;3.95;1.77;;;13.20;99.90;;;;;;5001649;28;20038;-86
2021/12/31 05:55:08;;;;;;;2.10;1.70;;;13.20;99.90;;;;;;5017900;28;20014;-85
2021/12/31 05:57:34;;;;;;;2.80;2.00;;;13.20;99.90;;;;;;5001637;28;20030;-85
2021/12/31 06:00:22;;;;;;;2.08;1.67;;;13.30;99.90;;;;;;4991729;28;20090;-87
2021/12/31 06:03:02;;;;;;;3.53;1.85;;;13.30;99.90;;;;;;5012700;28;20018;-85
2021/12/31 06:05:32;;;;;;;3.67;1.77;;;13.20;99.90;;;;;;4999461;28;20018;-85
2021/12/31 06:08:09;;;;;;;1.52;1.30;;;13.30;99.90;;;;;;4999429;28;20049;-86
2021/12/31 06:11:00;;;;;;;3.47;1.92;;;13.30;99.90;;;;;;5016416;28;20052;-86
2021/12/31 06:13:33;;;;;;;2.83;1.73;;;13.30;99.90;;;;;;4999042;28;20097;-87
2021/12/31 06:16:03;;;;;;;2.20;1.65;;;13.40;99.90;;;;;;5000858;28;20070;-88
2021/12/31 06:18:50;;;;;;;3.80;2.90;;;13.30;99.90;;;;;;5014705;28;20026;-87
2021/12/31 06:21:25;;;;;;;2.88;2.17;;;13.30;99.90;;;;;;5006437;28;20029;-87
2021/12/31 06:23:51;;;;;;;4.03;2.00;;;13.30;99.90;;;;;;5011847;28;20490;-86
2021/12/31 06:26:22;;;;;;;5.30;2.13;;;13.30;99.90;;;;;;5018175;28;20046;-83
2021/12/31 06:28:51;;;;;;;3.17;2.20;;;13.30;99.90;;;;;;5017961;28;20081;-84
2021/12/31 06:31:21;;;;;;;3.08;2.08;;;13.20;99.90;;;;;;4998373;28;20025;-85
2021/12/31 06:33:47;;;;;;;4.03;2.53;;;13.20;99.90;;;;;;4999526;28;20049;-86
2021/12/31 06:36:13;;;;;;;3.05;2.38;;;13.20;99.90;;;;;;5016718;28;20029;-87
2021/12/31 06:38:42;;;;;;;2.55;1.88;;;13.20;99.90;;;;;;5016092;28;20034;-87
2021/12/31 06:41:20;;;;;;;2.40;2.20;;;13.30;99.90;;;;;;5015151;28;20078;-84
2021/12/31 06:43:49;;;;;;;2.17;1.90;;;13.30;99.90;;;;;;4999916;28;20041;-86
2021/12/31 06:46:16;;;;;;;3.17;2.17;;;13.30;99.90;;;;;;5014810;28;20065;-85
2021/12/31 06:48:42;;;;;;;5.03;2.05;;;13.30;99.90;;;;;;5008466;28;20077;-86
2021/12/31 06:51:30;;;;;;;2.30;1.67;;;13.30;99.90;;;;;;5002582;28;20027;-84
2021/12/31 06:54:00;;;;;;;1.83;1.70;;;13.30;99.90;;;;;;4988560;28;20117;-86
2021/12/31 06:59:38;;;;;;;2.58;1.50;;;13.30;99.90;;;;;;4998605;28;20042;-86
2021/12/31 07:02:10;;;;;;;2.92;1.52;;;13.30;99.90;;;;;;5011282;28;20030;-86
2021/12/31 07:04:45;;;;;;;4.22;3.35;;;13.30;99.90;;;;;;4987071;28;20366;-87
2021/12/31 07:07:22;;;;;;;8.90;5.90;;;13.40;99.90;;;;;;5000775;28;20185;-85
2021/12/31 07:09:57;;;;;;;4.40;1.70;;;13.50;99.90;;;;;;4998570;28;20058;-86
2021/12/31 07:12:34;;;;;;;3.28;1.80;;;13.50;99.90;;;;;;5007423;28;20035;-87
2021/12/31 07:15:19;;;;;;;3.20;1.40;;;13.60;99.90;;;;;;5001845;28;20041;-85
2021/12/31 07:17:48;;;;;;;1.92;1.52;;;13.60;99.90;;;;;;5034408;28;20038;-87
2021/12/31 07:20:29;;;;;;;4.28;1.67;;;13.60;99.90;;;;;;5003044;28;20056;-85
2021/12/31 07:23:06;;;;;;;4.50;1.77;;;13.60;99.90;;;;;;5018252;28;20053;-86
2021/12/31 07:25:36;;;;;;;3.38;1.73;;;13.60;99.90;;;;;;5002107;28;20038;-87
2021/12/31 07:28:36;;;;;;;2.40;1.92;;;13.60;99.90;;;;;;5001082;28;20047;-85
2021/12/31 07:31:12;;;;;;;2.83;2.00;;;13.60;99.90;;;;;;5017715;28;20075;-86
2021/12/31 07:33:46;;;;;;;2.53;1.70;;;13.60;99.90;;;;;;5011866;28;20034;-86
2021/12/31 07:36:36;;;;;;;5.97;2.17;;;13.70;99.90;;;;;;5002189;28;20042;-85
2021/12/31 07:39:10;;;;;;;4.40;2.03;;;13.70;99.90;;;;;;5018774;28;20038;-87
2021/12/31 07:41:42;;;;;;;3.47;2.08;;;13.70;99.90;;;;;;5018450;28;20034;-86
2021/12/31 07:44:21;;;;;;;2.55;1.80;;;13.70;99.90;;;;;;5015026;28;20030;-85
2021/12/31 07:46:50;;;;;;;2.42;1.95;;;13.80;99.90;;;;;;5014403;28;20046;-87
2021/12/31 07:49:19;;;;;;;2.72;1.67;;;13.90;99.90;;;;;;5008483;28;20053;-87
2021/12/31 07:51:59;;;;;;;3.28;1.90;;;13.90;99.90;;;;;;5011200;28;20042;-87
2021/12/31 07:54:31;;;;;;;2.70;1.95;;;14.00;99.90;;;;;;5009243;28;20031;-86
2021/12/31 07:57:00;;;;;;;4.20;1.90;;;14.00;99.90;;;;;;5026689;28;20084;-85
2021/12/31 07:59:28;;;;;;;2.40;1.83;;;14.10;99.90;;;;;;4990921;28;20045;-87
2021/12/31 08:01:59;;;;;;;2.45;1.58;;;14.00;99.90;;;;;;5008634;28;20034;-86
2021/12/31 08:04:25;;;;;;;1.92;1.58;;;14.10;99.90;;;;;;5017995;28;20061;-86
2021/12/31 08:07:03;;;;;;;1.77;1.48;;;14.10;99.90;;;;;;5018479;28;20260;-87
2021/12/31 08:09:40;;;;;;;2.57;1.70;;;14.20;99.90;;;;;;5003389;28;20031;-89
2021/12/31 08:12:07;;;;;;;3.95;1.70;;;14.30;99.90;;;;;;5027647;28;20038;-87
2021/12/31 08:14:33;;;;;;;2.80;1.60;;;14.40;99.90;;;;;;5009223;28;20030;-87
2021/12/31 08:16:59;;;;;;;2.38;1.70;;;14.50;99.90;;;;;;5008349;28;20037;-88
2021/12/31 08:19:25;;;;;;;1.90;1.67;;;14.70;99.90;;;;;;4993715;28;20054;-88
2021/12/31 08:21:51;;;;;;;4.65;1.70;;;14.90;99.90;;;;;;4997097;28;20085;-86
2021/12/31 08:24:20;;;;;;;5.85;1.70;;;15.10;99.90;;;;;;4999382;28;20037;-85
2021/12/31 08:26:46;;;;;;;1.67;1.40;;;15.40;99.90;;;;;;5015368;28;20038;-88
2021/12/31 08:29:13;;;;;;;1.67;1.33;;;15.90;99.90;;;;;;5014577;28;20027;-87
2021/12/31 08:31:43;;;;;;;2.20;1.25;;;16.60;99.90;;;;;;5011698;28;20057;-87
2021/12/31 08:34:09;;;;;;;2.47;1.10;;;17.20;99.90;;;;;;4997901;28;20043;-87
2021/12/31 08:36:35;;;;;;;1.75;1.08;;;18.10;99.90;;;;;;5018801;28;20021;-89
2021/12/31 08:39:07;;;;;;;1.20;1.10;;;19.00;99.90;;;;;;5001988;28;20006;-89
2021/12/31 08:41:39;;;;;;;1.30;0.98;;;19.70;99.90;;;;;;5001177;28;20019;-88
2021/12/31 08:44:06;;;;;;;1.80;1.27;;;20.80;99.90;;;;;;4995832;28;20034;-89
2021/12/31 08:46:33;;;;;;;1.63;1.10;;;21.60;99.90;;;;;;5025239;22;20410;-86
2021/12/31 08:48:59;;;;;;;2.85;1.80;;;22.20;99.10;;;;;;4986772;28;20030;-87
2021/12/31 08:51:26;;;;;;;1.65;0.98;;;22.70;98.20;;;;;;5005540;28;20105;-84
2021/12/31 08:53:52;;;;;;;1.13;1.00;;;23.50;96.30;;;;;;5006283;28;20023;-84
2021/12/31 08:56:18;;;;;;;1.20;1.10;;;23.50;95.40;;;;;;5007781;28;20030;-83
2021/12/31 08:58:44;;;;;;;2.70;0.98;;;23.30;95.00;;;;;;5017939;28;20010;-82
2021/12/31 09:01:10;;;;;;;1.33;1.00;;;22.60;95.60;;;;;;5017784;28;20175;-80
2021/12/31 09:03:35;;;;;;;1.95;1.23;;;21.20;96.90;;;;;;5018049;28;20050;-82
2021/12/31 09:06:02;;;;;;;1.85;1.15;;;20.10;98.50;;;;;;5017875;28;20033;-82
2021/12/31 09:08:28;;;;;;;1.10;0.98;;;19.30;99.90;;;;;;5017980;28;20041;-83
2021/12/31 09:10:54;;;;;;;2.42;1.10;;;18.80;99.90;;;;;;5017813;28;20078;-82
2021/12/31 09:13:20;;;;;;;1.42;0.90;;;19.40;99.90;;;;;;5017907;28;20040;-82
2021/12/31 09:15:47;;;;;;;3.55;0.98;;;20.50;99.60;;;;;;5016133;28;20014;-83
2021/12/31 09:18:13;;;;;;;2.70;0.95;;;21.60;97.80;;;;;;5015736;28;20032;-82
2021/12/31 09:20:39;;;;;;;2.63;0.80;;;23.00;95.70;;;;;;5017483;28;20014;-84
2021/12/31 09:23:05;;;;;;;2.53;1.38;;;24.00;93.90;;;;;;5031944;28;20045;-83
2021/12/31 09:25:31;;;;;;;1.73;1.17;;;24.10;92.50;;;;;;5015558;28;20026;-85
2021/12/31 09:27:57;;;;;;;2.60;1.10;;;24.40;92.30;;;;;;5016717;28;20090;-83
2021/12/31 09:30:23;;;;;;;1.13;0.70;;;25.30;90.80;;;;;;5016646;28;20084;-84
2021/12/31 09:32:49;;;;;;;1.10;0.90;;;25.80;88.30;;;;;;5015545;28;20049;-85
2021/12/31 09:35:14;;;;;;;1.42;0.90;;;25.00;88.30;;;;;;5013721;28;20033;-84
2021/12/31 09:37:40;;;;;;;1.45;1.27;;;25.20;87.70;;;;;;5010895;28;20030;-82
2021/12/31 09:40:08;;;;;;;3.88;2.63;;;25.30;86.50;;;;;;5016482;28;20011;-81
2021/12/31 09:42:33;;;;;;;4.05;2.58;;;25.30;85.70;;;;;;5016682;28;20026;-86
2021/12/31 09:44:59;;;;;;;2.42;1.05;;;26.90;84.10;;;;;;5014186;28;20018;-87
2021/12/31 09:47:25;;;;;;;1.35;0.80;;;27.50;81.40;;;;;;5004244;28;20038;-87
2021/12/31 09:49:51;;;;;;;1.02;0.77;;;28.30;78.00;;;;;;5008649;28;20019;-85
2021/12/31 09:52:17;;;;;;;1.42;0.70;;;28.60;74.40;;;;;;5003957;28;20031;-86
2021/12/31 09:54:45;;;;;;;1.50;0.80;;;28.80;73.40;;;;;;5003822;28;20019;-86
2021/12/31 09:57:16;;;;;;;1.48;0.73;;;28.90;71.70;;;;;;5005872;28;20038;-86
2021/12/31 09:59:41;;;;;;;0.95;0.70;;;28.10;71.50;;;;;;5014888;28;20022;-83
2021/12/31 10:02:09;;;;;;;1.35;0.80;;;27.80;71.60;;;;;;5016555;28;20017;-83
2021/12/31 10:04:51;;;;;;;0.82;0.57;;;27.80;71.00;;;;;;5017094;28;20050;-82
2021/12/31 10:07:20;;;;;;;1.48;0.57;;;27.80;70.60;;;;;;5016556;28;20035;-84
2021/12/31 10:10:07;;;;;;;1.45;0.90;;;27.90;70.30;;;;;;5016923;28;20015;-83
2021/12/31 10:12:49;;;;;;;1.17;0.60;;;27.30;70.10;;;;;;5016077;28;20030;-85
2021/12/31 10:15:17;;;;;;;0.73;0.60;;;26.60;70.60;;;;;;5017445;28;20022;-82
2021/12/31 10:17:44;;;;;;;1.25;0.95;;;26.50;71.60;;;;;;5017206;28;20026;-84
2021/12/31 10:20:10;;;;;;;1.20;0.82;;;26.40;70.80;;;;;;5016477;28;20026;-84
2021/12/31 10:22:36;;;;;;;0.80;0.47;;;25.70;72.00;;;;;;5015903;28;20041;-85
2021/12/31 10:25:19;;;;;;;0.82;0.70;;;25.40;72.20;;;;;;4998405;28;20026;-83
2021/12/31 10:27:44;;;;;;;1.30;0.70;;;24.70;74.40;;;;;;5016560;28;20087;-82
2021/12/31 10:30:11;;;;;;;1.05;0.73;;;25.10;73.30;;;;;;5019080;28;20037;-84
2021/12/31 10:32:40;;;;;;;1.58;0.80;;;25.00;72.90;;;;;;5020567;28;20031;-85
2021/12/31 10:35:22;;;;;;;1.52;0.80;;;25.20;73.10;;;;;;5019439;28;20017;-81
2021/12/31 10:37:58;;;;;;;1.00;0.80;;;25.70;72.10;;;;;;5020036;28;20033;-84
2021/12/31 10:40:36;;;;;;;1.55;0.65;;;26.70;70.60;;;;;;5017394;28;20026;-87
2021/12/31 10:43:23;;;;;;;0.40;0.40;;;27.50;68.80;;;;;;5012405;28;20398;-84
2021/12/31 10:46:10;;;;;;;0.45;0.40;;;27.70;67.50;;;;;;5009834;28;20030;-86
2021/12/31 10:48:48;;;;;;;0.40;0.20;;;27.50;67.50;;;;;;5008595;28;20042;-85
2021/12/31 10:51:16;;;;;;;0.85;0.40;;;27.10;67.60;;;;;;5014141;28;20086;-86
2021/12/31 10:53:50;;;;;;;0.77;0.38;;;27.30;67.80;;;;;;5010543;28;20467;-83
2021/12/31 10:56:17;;;;;;;0.30;0.30;;;27.90;67.30;;;;;;5014063;28;20126;-86
2021/12/31 10:58:58;;;;;;;0.35;0.32;;;27.50;66.50;;;;;;5011928;28;20041;-85
2021/12/31 11:01:24;;;;;;;0.68;0.40;;;27.80;66.50;;;;;;5015557;28;20031;-83
2021/12/31 11:03:51;;;;;;;0.32;0.30;;;27.80;66.70;;;;;;5020470;28;20049;-84
2021/12/31 11:06:20;;;;;;;2.22;0.30;;;27.80;66.40;;;;;;5020499;28;20037;-83
2021/12/31 11:08:49;;;;;;;1.25;0.98;;;27.20;67.30;;;;;;5017678;28;20022;-84
2021/12/31 11:11:16;;;;;;;1.83;1.33;;;27.00;67.90;;;;;;5013909;28;20030;-85
2021/12/31 11:13:44;;;;;;;1.75;0.52;;;27.60;67.30;;;;;;5013921;28;20018;-87
2021/12/31 11:16:12;;;;;;;0.57;0.50;;;28.10;66.90;;;;;;5018432;28;20034;-85
2021/12/31 11:18:39;;;;;;;0.75;0.45;;;27.80;66.70;;;;;;5036210;28;20006;-83
2021/12/31 11:21:08;;;;;;;0.47;0.43;;;27.40;67.30;;;;;;5019726;28;20026;-82
2021/12/31 11:23:36;;;;;;;0.70;0.40;;;27.00;67.80;;;;;;5019870;28;20031;-84
2021/12/31 11:26:06;;;;;;;0.68;0.50;;;27.40;67.60;;;;;;5019997;28;20033;-82
2021/12/31 11:28:37;;;;;;;1.10;0.57;;;27.70;67.70;;;;;;5019241;28;20022;-82
2021/12/31 11:31:18;;;;;;;2.25;0.60;;;28.10;67.00;;;;;;5019787;28;20018;-84
2021/12/31 11:33:46;;;;;;;0.63;0.52;;;28.80;66.40;;;;;;5019684;28;20030;-85
2021/12/31 11:36:12;;;;;;;1.20;0.70;;;28.70;65.90;;;;;;5019345;28;20006;-84
2021/12/31 11:38:42;;;;;;;1.33;0.80;;;28.40;66.60;;;;;;5002594;28;20244;-80
2021/12/31 11:41:13;;;;;;;1.33;0.80;;;28.50;66.70;;;;;;5020073;28;20071;-81
2021/12/31 11:43:41;;;;;;;2.95;0.50;;;28.10;66.80;;;;;;5019796;28;20076;-83
2021/12/31 11:46:12;;;;;;;1.75;0.65;;;26.70;68.70;;;;;;5019672;28;20034;-82
2021/12/31 11:51:11;;;;;;;1.25;0.90;;;23.70;74.10;;;;;;5019965;28;20049;-80
2021/12/31 11:53:55;;;;;;;1.05;0.60;;;22.60;76.50;;;;;;5019854;28;20018;-82
2021/12/31 11:56:36;;;;;;;3.33;0.90;;;21.50;79.80;;;;;;5018984;28;20034;-83
2021/12/31 11:59:14;;;;;;;1.30;0.88;;;20.90;82.10;;;;;;5019913;28;20037;-84
2021/12/31 12:01:41;;;;;;;2.13;0.90;;;20.50;83.70;;;;;;5018927;28;20027;-83
2021/12/31 12:04:26;;;;;;;1.25;0.98;;;20.10;85.10;;;;;;5019746;28;20010;-81
2021/12/31 12:07:11;;;;;;;;;;;19.80;86.70;;;;;;5019784;28;20054;-81
2021/12/31 12:09:37;;;;;;;0.98;0.90;;;19.60;88.00;;;;;;5018382;28;19928;-83
2021/12/31 12:12:31;;;;;;;3.05;0.80;;;19.20;89.90;;;;;;5018921;28;20019;-82
2021/12/31 12:14:59;;;;;;;1.48;0.70;;;19.00;90.70;;;;;;5016604;28;20046;-82
2021/12/31 12:17:31;;;;;;;0.90;0.75;;;18.80;91.50;;;;;;5018893;28;20034;-83
2021/12/31 12:20:03;;;;;;;2.45;1.02;;;18.60;92.20;;;;;;5018617;28;20082;-84
2021/12/31 12:22:40;;;;;;;1.52;0.90;;;18.50;93.00;;;;;;5016956;28;20030;-85
2021/12/31 12:25:22;;;;;;;1.25;0.80;;;18.50;93.60;;;;;;5016042;28;20046;-84
2021/12/31 12:27:56;;;;;;;1.27;0.85;;;18.40;93.90;;;;;;5018149;28;20034;-82
2021/12/31 12:30:22;;;;;;;5.63;0.80;;;18.30;94.40;;;;;;5018301;28;20046;-83
2021/12/31 12:35:21;;;;;;;2.05;0.93;;;18.10;95.80;;;;;;5017741;28;20038;-85
2021/12/31 12:38:00;;;;;;;3.15;0.90;;;18.00;96.00;;;;;;5016709;28;20022;-84
2021/12/31 12:40:52;;;;;;;2.45;0.70;;;17.80;96.40;;;;;;5017231;28;20026;-83
2021/12/31 12:43:24;;;;;;;2.53;0.80;;;17.70;97.00;;;;;;5017251;28;20147;-86
2021/12/31 12:45:53;;;;;;;2.08;1.00;;;17.60;97.60;;;;;;5016558;28;20010;-84
2021/12/31 12:48:39;;;;;;;1.65;0.98;;;17.60;98.10;;;;;;5017407;28;20038;-83
2021/12/31 12:51:07;;;;;;;3.05;0.80;;;17.40;98.50;;;;;;5013050;28;20066;-84
2021/12/31 12:53:37;;;;;;;1.73;0.70;;;17.30;99.10;;;;;;5014920;28;20026;-84
2021/12/31 12:56:09;;;;;;;2.83;0.88;;;17.30;99.80;;;;;;5012982;28;20014;-87
2021/12/31 12:58:39;;;;;;;2.25;0.95;;;17.30;99.90;;;;;;5014430;28;20394;-82
2021/12/31 13:01:06;;;;;;;1.05;0.73;;;17.20;99.90;;;;;;5015722;28;20053;-85
2021/12/31 13:03:45;;;;;;;1.15;0.70;;;17.20;99.90;;;;;;5016735;28;20086;-83
2021/12/31 13:06:11;;;;;;;1.80;1.05;;;17.10;99.90;;;;;;5017697;28;20054;-84
2021/12/31 13:08:37;;;;;;;1.50;0.80;;;17.00;99.90;;;;;;5017787;28;20045;-82
2021/12/31 13:11:03;;;;;;;0.80;0.70;;;16.90;99.90;;;;;;5017101;28;20035;-83
2021/12/31 13:13:35;;;;;;;2.33;1.02;;;16.80;99.90;;;;;;5016102;28;20034;-82
2021/12/31 13:16:01;;;;;;;0.95;0.60;;;16.70;99.90;;;;;;5016581;28;20030;-85
2021/12/31 13:18:35;;;;;;;1.58;0.82;;;16.60;99.90;;;;;;5032364;28;20037;-83